createdAt,value
2022-12-11T00:01:35.988Z,99586.75
2022-12-11T00:04:04.492Z,99581.53
2022-12-11T00:06:32.839Z,99580.53
2022-12-11T00:09:02.317Z,99584.44
2022-12-11T00:11:32.193Z,99583.16
2022-12-11T00:14:00.739Z,99577.38
2022-12-11T00:16:28.982Z,99574.72
2022-12-11T00:18:57.353Z,99576.19
2022-12-11T00:21:25.914Z,99577.03
2022-12-11T00:23:54.844Z,99578.56
2022-12-11T00:26:23.663Z,99575.69
2022-12-11T00:28:57.066Z,99578.19
2022-12-11T00:31:26.099Z,99564.53
2022-12-11T00:33:54.424Z,99570.50
2022-12-11T00:36:25.576Z,99564.22
2022-12-11T00:38:54.705Z,99574.63
2022-12-11T00:41:23.902Z,99575.25
2022-12-11T00:43:54.172Z,99578.19
2022-12-11T00:46:22.652Z,99563.63
2022-12-11T00:48:51.073Z,99572.41
2022-12-11T00:51:19.681Z,99584.16
2022-12-11T00:53:48.521Z,99578.53
2022-12-11T00:56:21.532Z,99576.81
2022-12-11T00:58:50.986Z,99576.34
2022-12-11T01:01:24.380Z,99577.66
2022-12-11T01:03:54.545Z,99586.16
2022-12-11T01:06:26.114Z,99579.75
2022-12-11T01:09:09.465Z,99575.34
2022-12-11T01:11:37.681Z,99582.06
2022-12-11T01:14:06.381Z,99574.31
2022-12-11T01:16:37.176Z,99574.25
2022-12-11T01:19:06.649Z,99572.84
2022-12-11T01:21:34.913Z,99570.25
2022-12-11T01:24:03.407Z,99573.06
2022-12-11T01:26:32.062Z,99581.44
2022-12-11T01:29:00.433Z,99576.78
2022-12-11T01:31:28.982Z,99571.63
2022-12-11T01:33:58.622Z,99572.53
2022-12-11T01:36:27.164Z,99569.38
2022-12-11T01:38:55.884Z,99560.78
2022-12-11T01:41:24.491Z,99562.63
2022-12-11T01:44:02.594Z,99566.50
2022-12-11T01:46:33.407Z,99569.06
2022-12-11T01:49:06.633Z,99562.72
2022-12-11T01:51:38.376Z,99556.84
2022-12-11T01:54:12.834Z,99554.31
2022-12-11T01:56:44.210Z,99557.69
2022-12-11T01:59:15.807Z,99549.53
2022-12-11T02:01:51.464Z,99547.06
2022-12-11T02:04:22.221Z,99552.06
2022-12-11T02:06:53.046Z,99549.81
2022-12-11T02:09:27.414Z,99543.19
2022-12-11T02:12:04.650Z,99550.34
2022-12-11T02:14:44.682Z,99549.44
2022-12-11T02:17:17.100Z,99556.13
2022-12-11T02:20:05.558Z,99558.88
2022-12-11T02:22:55.541Z,99545.38
2022-12-11T02:25:31.565Z,99550.97
2022-12-11T02:28:20.499Z,99546.13
2022-12-11T02:30:57.922Z,99540.81
2022-12-11T02:33:34.769Z,99540.34
2022-12-11T02:36:06.468Z,99540.25
2022-12-11T02:38:41.558Z,99530.19
2022-12-11T02:41:12.832Z,99542.75
2022-12-11T02:43:45.659Z,99527.63
2022-12-11T02:46:15.315Z,99535.31
2022-12-11T02:48:45.229Z,99538.78
2022-12-11T02:51:17.716Z,99539.19
2022-12-11T02:53:47.890Z,99535.97
2022-12-11T02:56:25.565Z,99537.16
2022-12-11T02:59:00.907Z,99531.09
2022-12-11T03:01:29.516Z,99530.91
2022-12-11T03:03:59.362Z,99533.66
2022-12-11T03:06:36.843Z,99527.59
2022-12-11T03:09:06.670Z,99527.22
2022-12-11T03:11:34.843Z,99516.00
2022-12-11T03:14:05.109Z,99521.78
2022-12-11T03:16:37.983Z,99512.47
2022-12-11T03:19:17.160Z,99511.56
2022-12-11T03:21:53.758Z,99508.00
2022-12-11T03:24:27.535Z,99512.81
2022-12-11T03:27:02.204Z,99501.47
2022-12-11T03:29:38.942Z,99505.88
2022-12-11T03:32:12.911Z,99501.53
2022-12-11T03:34:48.072Z,99509.91
2022-12-11T03:37:18.090Z,99506.47
2022-12-11T03:39:52.490Z,99509.34
2022-12-11T03:42:23.095Z,99515.44
2022-12-11T03:44:55.980Z,99517.69
2022-12-11T03:47:27.656Z,99523.13
2022-12-11T03:49:59.694Z,99519.13
2022-12-11T03:52:30.332Z,99522.84
2022-12-11T03:55:04.306Z,99521.28
2022-12-11T03:57:36.351Z,99519.50
2022-12-11T04:00:07.827Z,99513.72
2022-12-11T04:02:40.571Z,99514.97
2022-12-11T04:05:11.040Z,99505.66
2022-12-11T04:07:39.566Z,99503.41
2022-12-11T04:10:08.353Z,99498.28
2022-12-11T04:12:36.841Z,99503.81
2022-12-11T04:15:06.872Z,99504.50
2022-12-11T04:17:54.981Z,99513.41
2022-12-11T04:20:41.051Z,99518.13
2022-12-11T04:23:32.076Z,99525.66
2022-12-11T04:26:07.031Z,99514.38
2022-12-11T04:28:36.019Z,99519.22
2022-12-11T04:31:06.285Z,99518.63
2022-12-11T04:33:34.930Z,99513.44
2022-12-11T04:36:04.423Z,99511.13
2022-12-11T04:38:32.786Z,99514.94
2022-12-11T04:41:01.436Z,99507.53
2022-12-11T04:43:30.377Z,99499.59
2022-12-11T04:46:08.984Z,99497.19
2022-12-11T04:48:38.098Z,99498.91
2022-12-11T04:51:07.884Z,99499.31
2022-12-11T04:53:37.613Z,99493.97
2022-12-11T04:56:08.282Z,99496.03
2022-12-11T04:58:37.232Z,99489.44
2022-12-11T05:01:10.252Z,99487.91
2022-12-11T05:03:39.315Z,99482.41
2022-12-11T05:06:09.573Z,99476.88
2022-12-11T05:08:40.251Z,99470.25
2022-12-11T05:11:11.250Z,99475.31
2022-12-11T05:13:39.930Z,99471.66
2022-12-11T05:16:13.528Z,99467.81
2022-12-11T05:18:42.069Z,99473.84
2022-12-11T05:21:15.853Z,99472.50
2022-12-11T05:23:44.208Z,99478.81
2022-12-11T05:26:16.018Z,99469.13
2022-12-11T05:28:45.131Z,99478.63
2022-12-11T05:31:19.970Z,99478.53
2022-12-11T05:33:50.194Z,99483.16
2022-12-11T05:36:21.966Z,99483.69
2022-12-11T05:38:51.406Z,99477.06
2022-12-11T05:41:22.092Z,99478.41
2022-12-11T05:43:50.519Z,99472.56
2022-12-11T05:46:23.465Z,99469.97
2022-12-11T05:48:54.748Z,99470.63
2022-12-11T05:51:24.152Z,99466.06
2022-12-11T05:53:54.792Z,99466.47
2022-12-11T05:56:27.243Z,99469.06
2022-12-11T05:58:57.429Z,99468.31
2022-12-11T06:01:31.271Z,99468.84
2022-12-11T06:04:01.327Z,99475.16
2022-12-11T06:06:30.034Z,99471.16
2022-12-11T06:09:01.538Z,99478.38
2022-12-11T06:11:32.966Z,99477.34
2022-12-11T06:14:03.729Z,99480.84
2022-12-11T06:16:34.132Z,99476.53
2022-12-11T06:19:02.449Z,99477.19
2022-12-11T06:21:33.245Z,99473.97
2022-12-11T06:24:05.749Z,99469.31
2022-12-11T06:26:34.501Z,99471.78
2022-12-11T06:29:05.280Z,99466.28
2022-12-11T06:31:38.929Z,99467.03
2022-12-11T06:34:07.385Z,99471.72
2022-12-11T06:36:35.910Z,99466.91
2022-12-11T06:39:05.369Z,99478.84
2022-12-11T06:41:33.591Z,99477.53
2022-12-11T06:44:02.260Z,99477.56
2022-12-11T06:46:30.744Z,99467.84
2022-12-11T06:49:00.591Z,99480.03
2022-12-11T06:51:28.903Z,99473.53
2022-12-11T06:53:58.309Z,99478.19
2022-12-11T06:56:27.295Z,99491.84
2022-12-11T06:58:57.114Z,99489.81
2022-12-11T07:01:27.713Z,99486.47
2022-12-11T07:03:57.162Z,99487.97
2022-12-11T07:06:29.037Z,99480.94
2022-12-11T07:08:58.163Z,99482.75
2022-12-11T07:11:26.402Z,99478.56
2022-12-11T07:13:54.785Z,99462.97
2022-12-11T07:16:23.148Z,99469.31
2022-12-11T07:18:52.849Z,99472.69
2022-12-11T07:21:21.979Z,99470.22
2022-12-11T07:23:52.003Z,99471.91
2022-12-11T07:26:23.015Z,99476.09
2022-12-11T07:28:51.619Z,99473.06
2022-12-11T07:31:23.165Z,99465.19
2022-12-11T07:33:56.124Z,99470.31
2022-12-11T07:36:25.085Z,99473.34
2022-12-11T07:38:55.443Z,99475.09
2022-12-11T07:41:24.807Z,99466.25
2022-12-11T07:43:56.236Z,99468.34
2022-12-11T07:46:27.928Z,99470.44
2022-12-11T07:48:56.736Z,99475.13
2022-12-11T07:51:32.341Z,99471.84
2022-12-11T07:54:04.757Z,99468.19
2022-12-11T07:56:34.592Z,99475.88
2022-12-11T07:59:04.600Z,99475.53
2022-12-11T08:01:35.675Z,99477.44
2022-12-11T08:04:06.028Z,99476.41
2022-12-11T08:06:36.799Z,99470.16
2022-12-11T08:09:09.820Z,99471.38
2022-12-11T08:11:38.429Z,99464.63
2022-12-11T08:14:08.964Z,99464.59
2022-12-11T08:16:39.140Z,99469.56
2022-12-11T08:19:08.582Z,99468.81
2022-12-11T08:21:37.983Z,99468.00
2022-12-11T08:24:08.987Z,99465.63
2022-12-11T08:26:38.107Z,99466.00
2022-12-11T08:29:06.459Z,99452.69
2022-12-11T08:31:35.275Z,99467.75
2022-12-11T08:34:04.576Z,99465.38
2022-12-11T08:36:33.286Z,99471.09
2022-12-11T08:39:03.472Z,99475.97
2022-12-11T08:41:33.490Z,99473.09
2022-12-11T08:44:01.953Z,99466.00
2022-12-11T08:46:33.106Z,99470.75
2022-12-11T08:49:01.848Z,99470.16
2022-12-11T08:51:31.830Z,99463.72
2022-12-11T08:54:02.211Z,99467.63
2022-12-11T08:56:32.757Z,99462.00
2022-12-11T08:59:01.810Z,99462.69
2022-12-11T09:01:30.651Z,99464.47
2022-12-11T09:03:59.196Z,99457.53
2022-12-11T09:06:30.196Z,99457.22
2022-12-11T09:09:00.914Z,99461.50
2022-12-11T09:11:33.655Z,99458.97
2022-12-11T09:14:07.366Z,99457.09
2022-12-11T09:16:40.082Z,99461.59
2022-12-11T09:19:13.809Z,99452.47
2022-12-11T09:21:43.291Z,99454.84
2022-12-11T09:24:13.807Z,99449.69
2022-12-11T09:26:43.932Z,99457.03
2022-12-11T09:29:13.131Z,99446.41
2022-12-11T09:31:41.827Z,99454.84
2022-12-11T09:34:13.543Z,99454.97
2022-12-11T09:36:45.287Z,99459.88
2022-12-11T09:39:15.609Z,99456.69
2022-12-11T09:41:56.595Z,99453.78
2022-12-11T09:44:38.359Z,99458.22
2022-12-11T09:47:23.316Z,99460.81
2022-12-11T09:49:58.692Z,99465.69
2022-12-11T09:52:36.074Z,99463.47
2022-12-11T09:55:17.371Z,99451.13
2022-12-11T09:57:57.960Z,99444.84
2022-12-11T10:00:31.754Z,99452.16
2022-12-11T10:03:32.310Z,99453.78
2022-12-11T10:06:08.961Z,99451.81
2022-12-11T10:08:47.411Z,99445.47
2022-12-11T10:11:39.947Z,99452.38
2022-12-11T10:14:19.738Z,99447.03
2022-12-11T10:16:53.046Z,99441.59
2022-12-11T10:19:27.676Z,99449.00
2022-12-11T10:21:57.744Z,99442.56
2022-12-11T10:25:09.571Z,99448.00
2022-12-11T10:27:32.100Z,99440.38
2022-12-11T10:30:15.878Z,99433.72
2022-12-11T10:32:53.565Z,99426.00
2022-12-11T10:35:34.107Z,99425.66
2022-12-11T10:38:14.584Z,99430.50
2022-12-11T10:40:47.225Z,99421.75
2022-12-11T10:43:15.332Z,99416.41
2022-12-11T10:45:54.056Z,99421.22
2022-12-11T10:48:23.605Z,99420.69
2022-12-11T10:51:02.310Z,99420.81
2022-12-11T10:53:31.401Z,99409.22
2022-12-11T10:56:01.828Z,99406.41
2022-12-11T10:58:34.369Z,99405.28
2022-12-11T11:01:24.330Z,99401.03
2022-12-11T11:03:59.773Z,99402.03
2022-12-11T11:06:28.751Z,99406.16
2022-12-11T11:09:00.081Z,99395.69
2022-12-11T11:11:34.264Z,99386.34
2022-12-11T11:14:11.806Z,99378.66
2022-12-11T11:16:44.872Z,99385.06
2022-12-11T11:19:24.667Z,99380.66
2022-12-11T11:21:56.515Z,99375.88
2022-12-11T11:24:33.104Z,99370.69
2022-12-11T11:27:13.309Z,99365.63
2022-12-11T11:29:45.057Z,99364.34
2022-12-11T11:32:23.728Z,99369.69
2022-12-11T11:34:52.024Z,99366.19
2022-12-11T11:37:31.592Z,99360.41
2022-12-11T11:40:09.482Z,99358.56
2022-12-11T11:42:48.947Z,99358.09
2022-12-11T11:45:24.546Z,99355.94
2022-12-11T11:48:10.921Z,99343.84
2022-12-11T11:50:46.994Z,99352.06
2022-12-11T11:53:23.367Z,99345.66
2022-12-11T11:56:04.074Z,99351.81
2022-12-11T11:58:42.891Z,99351.66
2022-12-11T12:01:17.344Z,99346.94
2022-12-11T12:03:48.850Z,99347.84
2022-12-11T12:06:32.466Z,99342.22
2022-12-11T12:09:16.173Z,99336.97
2022-12-11T12:11:53.495Z,99344.00
2022-12-11T12:14:51.823Z,99346.34
2022-12-11T12:17:27.855Z,99339.22
2022-12-11T12:20:20.668Z,99337.00
2022-12-11T12:23:26.046Z,99336.63
2022-12-11T12:26:04.252Z,99324.88
2022-12-11T12:28:45.110Z,99329.25
2022-12-11T12:31:44.019Z,99330.34
2022-12-11T12:34:26.168Z,99323.50
2022-12-11T12:37:06.762Z,99321.59
2022-12-11T12:39:46.619Z,99317.63
2022-12-11T12:42:31.469Z,99313.47
2022-12-11T12:45:04.762Z,99316.28
2022-12-11T12:47:36.335Z,99321.09
2022-12-11T12:50:11.564Z,99318.34
2022-12-11T12:52:42.726Z,99319.97
2022-12-11T12:55:24.121Z,99316.53
2022-12-11T12:57:57.434Z,99311.63
2022-12-11T13:00:34.396Z,99320.09
2022-12-11T13:03:16.546Z,99322.53
2022-12-11T13:05:56.031Z,99320.31
2022-12-11T13:08:30.078Z,99319.97
2022-12-11T13:11:06.355Z,99319.03
2022-12-11T13:13:39.369Z,99330.19
2022-12-11T13:16:25.465Z,99327.78
2022-12-11T13:18:54.612Z,99328.56
2022-12-11T13:21:32.659Z,99323.47
2022-12-11T13:24:26.031Z,99327.50
2022-12-11T13:26:54.901Z,99337.91
2022-12-11T13:29:32.201Z,99335.78
2022-12-11T13:32:03.568Z,99335.84
2022-12-11T13:34:36.303Z,99342.91
2022-12-11T13:37:05.422Z,99342.19
2022-12-11T13:39:38.644Z,99346.69
2022-12-11T13:42:17.624Z,99353.72
2022-12-11T13:44:50.320Z,99355.31
2022-12-11T13:47:19.935Z,99356.19
2022-12-11T13:49:56.844Z,99358.06
2022-12-11T13:52:28.589Z,99357.41
2022-12-11T13:55:01.257Z,99356.53
2022-12-11T13:57:29.477Z,99358.53
2022-12-11T13:59:59.455Z,99346.44
2022-12-11T14:02:31.193Z,99358.25
2022-12-11T14:05:03.141Z,99354.97
2022-12-11T14:07:34.614Z,99363.19
2022-12-11T14:10:10.686Z,99356.16
2022-12-11T14:12:39.355Z,99355.25
2022-12-11T14:15:14.318Z,99356.94
2022-12-11T14:17:50.018Z,99359.50
2022-12-11T14:20:23.940Z,99354.50
2022-12-11T14:22:52.733Z,99361.00
2022-12-11T14:25:26.206Z,99362.72
2022-12-11T14:27:57.753Z,99374.88
2022-12-11T14:30:28.814Z,99372.94
2022-12-11T14:33:00.243Z,99373.88
2022-12-11T14:35:38.725Z,99366.09
2022-12-11T14:38:15.993Z,99365.13
2022-12-11T14:40:51.083Z,99363.16
2022-12-11T14:43:25.313Z,99363.44
2022-12-11T14:46:00.470Z,99371.97
2022-12-11T14:48:38.429Z,99367.78
2022-12-11T14:51:13.378Z,99364.72
2022-12-11T14:53:45.883Z,99372.09
2022-12-11T14:56:22.229Z,99368.66
2022-12-11T14:58:56.388Z,99367.28
2022-12-11T15:01:28.171Z,99365.72
2022-12-11T15:04:20.747Z,99369.47
2022-12-11T15:06:51.570Z,99374.69
2022-12-11T15:09:22.501Z,99379.03
2022-12-11T15:11:54.346Z,99376.41
2022-12-11T15:14:23.879Z,99372.38
2022-12-11T15:16:54.982Z,99380.81
2022-12-11T15:19:29.737Z,99380.78
2022-12-11T15:22:04.842Z,99384.88
2022-12-11T15:24:41.457Z,99379.31
2022-12-11T15:27:26.906Z,99381.97
2022-12-11T15:29:55.257Z,99382.81
2022-12-11T15:32:25.104Z,99380.75
2022-12-11T15:34:56.069Z,99386.13
2022-12-11T15:37:26.876Z,99384.56
2022-12-11T15:39:57.608Z,99387.31
2022-12-11T15:42:31.474Z,99388.59
2022-12-11T15:45:01.127Z,99388.13
2022-12-11T15:47:32.401Z,99392.06
2022-12-11T15:50:04.437Z,99387.44
2022-12-11T15:52:34.596Z,99388.06
2022-12-11T15:55:03.112Z,99384.34
2022-12-11T15:57:33.135Z,99382.53
2022-12-11T16:00:01.774Z,99376.06
2022-12-11T16:02:33.503Z,99379.34
2022-12-11T16:05:01.768Z,99388.22
2022-12-11T16:07:30.222Z,99380.59
2022-12-11T16:09:58.984Z,99383.38
2022-12-11T16:12:27.269Z,99384.94
2022-12-11T16:14:56.986Z,99385.84
2022-12-11T16:17:25.766Z,99386.06
2022-12-11T16:19:55.340Z,99378.63
2022-12-11T16:22:23.943Z,99381.53
2022-12-11T16:24:55.788Z,99381.13
2022-12-11T16:27:24.829Z,99372.06
2022-12-11T16:29:53.522Z,99372.03
2022-12-11T16:32:23.834Z,99379.84
2022-12-11T16:34:52.454Z,99374.72
2022-12-11T16:37:20.685Z,99378.63
2022-12-11T16:39:49.262Z,99373.09
2022-12-11T16:42:17.721Z,99373.28
2022-12-11T16:44:46.172Z,99372.66
2022-12-11T16:47:14.499Z,99375.09
2022-12-11T16:49:44.251Z,99371.63
2022-12-11T16:52:15.330Z,99372.31
2022-12-11T16:54:47.494Z,99374.00
2022-12-11T16:57:16.177Z,99365.38
2022-12-11T16:59:44.568Z,99371.81
2022-12-11T17:02:13.133Z,99369.38
2022-12-11T17:04:46.119Z,99368.59
2022-12-11T17:07:17.124Z,99377.34
2022-12-11T17:09:45.668Z,99370.78
2022-12-11T17:12:14.042Z,99374.53
2022-12-11T17:14:42.388Z,99366.41
2022-12-11T17:17:10.623Z,99366.03
2022-12-11T17:19:38.882Z,99370.44
2022-12-11T17:22:09.333Z,99366.81
2022-12-11T17:24:38.080Z,99365.91
2022-12-11T17:27:06.698Z,99370.56
2022-12-11T17:29:34.917Z,99368.72
2022-12-11T17:32:03.697Z,99367.75
2022-12-11T17:34:37.831Z,99365.03
2022-12-11T17:37:08.361Z,99376.38
2022-12-11T17:39:37.669Z,99368.94
2022-12-11T17:42:06.347Z,99368.00
2022-12-11T17:44:34.715Z,99367.19
2022-12-11T17:47:09.171Z,99376.38
2022-12-11T17:49:39.565Z,99376.38
2022-12-11T17:52:09.531Z,99378.38
2022-12-11T17:54:39.407Z,99374.59
2022-12-11T17:57:07.658Z,99373.22
2022-12-11T17:59:35.937Z,99373.22
2022-12-11T18:02:04.497Z,99369.91
2022-12-11T18:04:32.916Z,99371.28
2022-12-11T18:07:01.552Z,99381.00
2022-12-11T18:09:31.712Z,99375.50
2022-12-11T18:12:01.541Z,99380.97
2022-12-11T18:14:29.962Z,99373.91
2022-12-11T18:16:58.323Z,99381.16
2022-12-11T18:19:27.063Z,99378.41
2022-12-11T18:21:56.722Z,99375.84
2022-12-11T18:24:25.820Z,99378.22
2022-12-11T18:26:56.438Z,99373.66
2022-12-11T18:29:24.837Z,99377.59
2022-12-11T18:31:53.444Z,99366.03
2022-12-11T18:34:21.805Z,99372.72
2022-12-11T18:36:50.132Z,99371.50
2022-12-11T18:39:18.427Z,99368.53
2022-12-11T18:41:58.406Z,99378.97
2022-12-11T18:44:33.579Z,99381.34
2022-12-11T18:47:02.100Z,99375.50
2022-12-11T18:49:30.969Z,99381.47
2022-12-11T18:51:59.349Z,99387.13
2022-12-11T18:54:27.693Z,99381.63
2022-12-11T18:56:56.436Z,99380.34
2022-12-11T18:59:25.224Z,99375.88
2022-12-11T19:01:55.500Z,99384.50
2022-12-11T19:04:24.079Z,99377.31
2022-12-11T19:06:52.777Z,99375.31
2022-12-11T19:09:21.862Z,99370.91
2022-12-11T19:11:50.488Z,99380.88
2022-12-11T19:14:18.951Z,99374.66
2022-12-11T19:16:47.568Z,99376.97
2022-12-11T19:19:21.954Z,99375.31
2022-12-11T19:21:51.639Z,99374.03
2022-12-11T19:24:23.498Z,99377.41
2022-12-11T19:26:52.843Z,99375.50
2022-12-11T19:29:25.069Z,99374.66
2022-12-11T19:31:55.713Z,99375.13
2022-12-11T19:34:26.763Z,99370.38
2022-12-11T19:36:56.405Z,99369.69
2022-12-11T19:39:24.938Z,99360.34
2022-12-11T19:41:54.562Z,99357.75
2022-12-11T19:44:22.857Z,99359.66
2022-12-11T19:46:51.209Z,99368.72
2022-12-11T19:49:19.869Z,99367.47
2022-12-11T19:51:49.702Z,99366.63
2022-12-11T19:54:19.603Z,99364.38
2022-12-11T19:56:48.205Z,99369.19
2022-12-11T19:59:18.066Z,99362.97
2022-12-11T20:01:48.016Z,99357.56
2022-12-11T20:04:18.560Z,99358.72
2022-12-11T20:06:48.986Z,99357.56
2022-12-11T20:09:18.384Z,99359.00
2022-12-11T20:11:48.715Z,99372.78
2022-12-11T20:14:23.997Z,99366.56
2022-12-11T20:17:12.805Z,99363.84
2022-12-11T20:19:42.147Z,99360.53
2022-12-11T20:22:12.296Z,99363.66
2022-12-11T20:24:40.788Z,99365.97
2022-12-11T20:27:12.354Z,99366.69
2022-12-11T20:29:40.806Z,99371.09
2022-12-11T20:32:11.472Z,99371.44
2022-12-11T20:34:40.281Z,99371.47
2022-12-11T20:37:09.045Z,99369.09
2022-12-11T20:39:39.655Z,99373.13
2022-12-11T20:42:11.695Z,99366.34
2022-12-11T20:44:44.164Z,99377.50
2022-12-11T20:47:19.558Z,99370.09
2022-12-11T20:49:48.686Z,99377.84
2022-12-11T20:52:18.037Z,99372.19
2022-12-11T20:54:47.916Z,99372.59
2022-12-11T20:57:16.604Z,99367.53
2022-12-11T20:59:46.466Z,99373.47
2022-12-11T21:02:15.669Z,99361.75
2022-12-11T21:04:45.270Z,99369.63
2022-12-11T21:07:13.994Z,99370.38
2022-12-11T21:09:42.463Z,99367.97
2022-12-11T21:12:12.451Z,99371.47
2022-12-11T21:14:40.843Z,99369.16
2022-12-11T21:17:10.013Z,99367.91
2022-12-11T21:19:40.352Z,99381.19
2022-12-11T21:22:08.816Z,99383.66
2022-12-11T21:24:37.142Z,99376.47
2022-12-11T21:27:05.908Z,99381.25
2022-12-11T21:29:36.742Z,99379.53
2022-12-11T21:32:06.172Z,99385.03
2022-12-11T21:34:34.646Z,99384.13
2022-12-11T21:37:04.933Z,99388.22
2022-12-11T21:39:39.196Z,99387.41
2022-12-11T21:42:08.100Z,99384.09
2022-12-11T21:45:31.516Z,99381.94
2022-12-11T21:47:27.847Z,99377.97
2022-12-11T21:49:56.568Z,99380.44
2022-12-11T21:52:25.038Z,99373.22
2022-12-11T21:54:53.560Z,99368.38
2022-12-11T21:57:26.319Z,99379.34
2022-12-11T21:59:56.911Z,99379.22
2022-12-11T22:02:25.380Z,99380.44
2022-12-11T22:04:53.955Z,99378.78
2022-12-11T22:07:23.599Z,99385.19
2022-12-11T22:09:52.400Z,99381.63
2022-12-11T22:12:25.406Z,99390.72
2022-12-11T22:14:53.878Z,99391.16
2022-12-11T22:17:24.217Z,99391.34
2022-12-11T22:19:53.800Z,99397.50
2022-12-11T22:22:22.385Z,99392.34
2022-12-11T22:24:51.012Z,99400.59
2022-12-11T22:27:23.593Z,99399.94
2022-12-11T22:29:52.276Z,99409.47
2022-12-11T22:32:20.520Z,99403.53
2022-12-11T22:34:50.091Z,99411.41
2022-12-11T22:37:18.431Z,99407.75
2022-12-11T22:39:47.074Z,99400.41
2022-12-11T22:42:15.627Z,99409.66
2022-12-11T22:44:47.845Z,99409.56
2022-12-11T22:47:17.147Z,99413.63
2022-12-11T22:49:45.751Z,99411.84
2022-12-11T22:52:15.620Z,99410.19
2022-12-11T22:54:44.638Z,99402.97
2022-12-11T22:57:14.497Z,99404.81
2022-12-11T22:59:43.466Z,99396.66
2022-12-11T23:02:11.849Z,99394.38
2022-12-11T23:04:40.248Z,99402.88
2022-12-11T23:07:08.904Z,99398.03
2022-12-11T23:09:38.766Z,99399.31
2022-12-11T23:12:08.080Z,99400.41
2022-12-11T23:14:36.763Z,99405.72
2022-12-11T23:17:05.442Z,99410.41
2022-12-11T23:19:35.722Z,99415.63
2022-12-11T23:22:05.380Z,99409.31
2022-12-11T23:24:33.933Z,99411.31
2022-12-11T23:27:04.151Z,99410.56
2022-12-11T23:29:33.167Z,99412.78
2022-12-11T23:32:01.735Z,99411.88
2022-12-11T23:34:30.679Z,99411.75
2022-12-11T23:36:59.207Z,99412.69
2022-12-11T23:39:27.472Z,99418.81
2022-12-11T23:41:56.155Z,99416.34
2022-12-11T23:44:25.826Z,99418.81
2022-12-11T23:46:54.339Z,99419.94
2022-12-11T23:49:23.003Z,99427.16
2022-12-11T23:51:51.482Z,99425.13
2022-12-11T23:54:20.084Z,99424.03
2022-12-11T23:56:48.659Z,99432.28
2022-12-11T23:59:17.093Z,99423.09
